Time;durP1;ratioP1;P1;durP2;ratioP2;P2;SDS_P1;SDS_P2;PMS_P1;PMS_P2;Temp;Humidity;BMP_temperature;BMP_pressure;BME280_temperature;BME280_humidity;BME280_pressure;Samples;Min_cycle;Max_cycle;Signal;HPM_P1;HPM_P2
2023/05/01 00:01:04;;;;;;;7.75;5.03;;;;;;;;;;5014325;28;20100;-58
2023/05/01 00:03:30;;;;;;;9.23;5.22;;;;;;;;;;5012605;28;20048;-58
2023/05/01 00:06:06;;;;;;;7.20;5.50;;;;;;;;;;5013339;28;20570;-58
2023/05/01 00:08:33;;;;;;;9.23;5.10;;;;;;;;;;5009738;28;20054;-58
2023/05/01 00:11:02;;;;;;;7.88;6.13;;;;;;;;;;5013618;28;20855;-58
2023/05/01 00:13:28;;;;;;;6.70;5.07;;;;;;;;;;5013058;28;20138;-58
2023/05/01 00:15:55;;;;;;;8.63;4.68;;;;;;;;;;5013172;28;20197;-58
2023/05/01 00:18:21;;;;;;;6.53;4.88;;;;;;;;;;5012101;28;20886;-58
2023/05/01 00:20:47;;;;;;;8.48;5.03;;;;;;;;;;5011300;28;20046;-58
2023/05/01 00:23:13;;;;;;;6.15;4.63;;;;;;;;;;5003683;28;20053;-58
2023/05/01 00:25:39;;;;;;;8.00;5.35;;;;;;;;;;5007971;28;20052;-57
2023/05/01 00:28:06;;;;;;;7.53;5.68;;;;;;;;;;5027486;28;20046;-58
2023/05/01 00:30:33;;;;;;;11.82;5.35;;;;;;;;;;5012084;28;20041;-57
2023/05/01 00:33:00;;;;;;;9.65;6.32;;;;;;;;;;5012196;28;20046;-58
2023/05/01 00:35:26;;;;;;;10.23;6.85;;;;;;;;;;5013126;28;20149;-58
2023/05/01 00:37:52;;;;;;;11.40;7.20;;;;;;;;;;5011635;28;20052;-58
2023/05/01 00:40:18;;;;;;;11.93;7.70;;;;;;;;;;5009937;28;20049;-58
2023/05/01 00:42:45;;;;;;;14.70;7.88;;;;;;;;;;5028780;28;20635;-58
2023/05/01 00:45:11;;;;;;;12.48;8.48;;;;;;;;;;4995542;28;20050;-58
2023/05/01 00:47:37;;;;;;;13.27;8.65;;;;;;;;;;4992800;28;20899;-59
2023/05/01 00:50:04;;;;;;;10.60;7.35;;;;;;;;;;4993433;28;20046;-58
2023/05/01 00:52:30;;;;;;;12.32;7.25;;;;;;;;;;4993045;28;20039;-59
2023/05/01 00:54:57;;;;;;;13.25;7.93;;;;;;;;;;4993449;28;20069;-58
2023/05/01 00:57:23;;;;;;;13.13;7.65;;;;;;;;;;4990242;28;20042;-58
2023/05/01 00:59:49;;;;;;;11.90;8.10;;;;;;;;;;4992289;28;20053;-58
2023/05/01 01:02:15;;;;;;;10.98;6.88;;;;;;;;;;4994150;28;20042;-58
2023/05/01 01:04:42;;;;;;;10.55;7.07;;;;;;;;;;5009666;28;20189;-59
2023/05/01 01:07:18;;;;;;;12.85;8.85;;;;;;;;;;5007893;28;20839;-59
2023/05/01 01:10:04;;;;;;;9.57;6.88;;;;;;;;;;4991733;28;20093;-58
2023/05/01 01:12:30;;;;;;;11.43;7.70;;;;;;;;;;4991198;28;20507;-59
2023/05/01 01:15:04;;;;;;;12.30;6.80;;;;;;;;;;4991657;28;20117;-58
2023/05/01 01:17:46;;;;;;;9.65;6.85;;;;;;;;;;5009320;28;20054;-58
2023/05/01 01:20:12;;;;;;;11.98;7.60;;;;;;;;;;4989560;28;20560;-58
2023/05/01 01:22:39;;;;;;;12.05;7.60;;;;;;;;;;4993542;28;20579;-58
2023/05/01 01:25:24;;;;;;;10.38;6.95;;;;;;;;;;4992496;28;20573;-58
2023/05/01 01:28:15;;;;;;;14.55;7.60;;;;;;;;;;4990479;28;20121;-58
2023/05/01 01:30:41;;;;;;;17.15;8.57;;;;;;;;;;4992477;28;20087;-58
2023/05/01 01:33:13;;;;;;;15.90;8.95;;;;;;;;;;4993723;28;20110;-58
2023/05/01 01:35:42;;;;;;;12.20;7.78;;;;;;;;;;4992220;28;20610;-58
2023/05/01 01:38:21;;;;;;;15.10;8.35;;;;;;;;;;4991880;28;20038;-59
2023/05/01 01:40:53;;;;;;;13.88;7.80;;;;;;;;;;4995181;28;20106;-59
2023/05/01 01:43:19;;;;;;;;;;;;;;;;;;5014817;28;20538;-58
2023/05/01 01:45:52;;;;;;;20.25;8.93;;;;;;;;;;5012969;28;19932;-58
2023/05/01 01:48:23;;;;;;;12.77;8.23;;;;;;;;;;5012808;28;20053;-58
2023/05/01 01:50:50;;;;;;;15.98;9.95;;;;;;;;;;5012575;28;20350;-58
2023/05/01 01:53:17;;;;;;;14.68;8.88;;;;;;;;;;5011678;28;20053;-58
2023/05/01 01:55:45;;;;;;;14.13;9.48;;;;;;;;;;5010807;28;20367;-58
2023/05/01 01:58:13;;;;;;;14.50;9.90;;;;;;;;;;5009690;28;20042;-58
2023/05/01 02:00:40;;;;;;;15.82;10.52;;;;;;;;;;5009066;28;20073;-58
2023/05/01 02:03:08;;;;;;;14.98;8.95;;;;;;;;;;5011121;28;20053;-58
2023/05/01 02:05:35;;;;;;;19.90;10.25;;;;;;;;;;5012736;28;20072;-58
2023/05/01 02:08:02;;;;;;;18.13;9.63;;;;;;;;;;5010296;28;20049;-59
2023/05/01 02:10:29;;;;;;;16.67;11.10;;;;;;;;;;5010783;28;20987;-58
2023/05/01 02:12:57;;;;;;;15.10;8.55;;;;;;;;;;5009702;28;20056;-58
2023/05/01 02:15:24;;;;;;;14.75;8.75;;;;;;;;;;5011900;28;20048;-58
2023/05/01 02:17:51;;;;;;;16.95;9.13;;;;;;;;;;5012464;28;20085;-58
2023/05/01 02:20:18;;;;;;;16.38;9.77;;;;;;;;;;5012983;28;20048;-58
2023/05/01 02:22:46;;;;;;;14.75;9.98;;;;;;;;;;5018569;28;20181;-58
2023/05/01 02:25:13;;;;;;;14.52;9.30;;;;;;;;;;5010804;28;20045;-58
2023/05/01 02:27:52;;;;;;;15.18;9.15;;;;;;;;;;5012076;28;20034;-58
2023/05/01 02:30:18;;;;;;;17.40;9.63;;;;;;;;;;5008927;28;20545;-59
2023/05/01 02:32:45;;;;;;;15.77;8.25;;;;;;;;;;5008905;28;20038;-59
2023/05/01 02:35:11;;;;;;;13.40;7.38;;;;;;;;;;5008885;28;20503;-58
2023/05/01 02:37:37;;;;;;;13.90;8.55;;;;;;;;;;5008891;28;20047;-58
2023/05/01 02:40:04;;;;;;;14.40;9.30;;;;;;;;;;5024579;28;20042;-58
2023/05/01 02:42:31;;;;;;;14.68;8.60;;;;;;;;;;5006602;28;20201;-58
2023/05/01 02:44:58;;;;;;;13.95;9.23;;;;;;;;;;5008310;28;20053;-58
2023/05/01 02:47:26;;;;;;;17.58;8.32;;;;;;;;;;5004951;28;20096;-58
2023/05/01 02:49:53;;;;;;;14.82;7.57;;;;;;;;;;5010879;28;20053;-58
2023/05/01 02:52:24;;;;;;;12.30;6.22;;;;;;;;;;5010015;28;20065;-58
2023/05/01 02:54:50;;;;;;;11.98;8.45;;;;;;;;;;5008046;28;20046;-58
2023/05/01 02:57:17;;;;;;;14.30;8.48;;;;;;;;;;5011744;28;20053;-58
2023/05/01 02:59:43;;;;;;;15.25;9.25;;;;;;;;;;5009369;28;20130;-58
2023/05/01 03:02:09;;;;;;;14.10;9.45;;;;;;;;;;5005655;28;21582;-58
2023/05/01 03:04:35;;;;;;;11.90;7.32;;;;;;;;;;5009809;28;20061;-59
2023/05/01 03:07:03;;;;;;;12.73;7.85;;;;;;;;;;5009875;28;20174;-58
2023/05/01 03:09:30;;;;;;;10.45;6.07;;;;;;;;;;5010805;28;20046;-57
2023/05/01 03:11:56;;;;;;;15.63;8.43;;;;;;;;;;5008571;28;20052;-58
2023/05/01 03:14:22;;;;;;;12.68;8.93;;;;;;;;;;5008986;28;20527;-58
2023/05/01 03:16:48;;;;;;;16.40;8.70;;;;;;;;;;5008685;28;20139;-58
2023/05/01 03:19:14;;;;;;;13.48;9.05;;;;;;;;;;5009956;28;20201;-59
2023/05/01 03:21:41;;;;;;;14.18;9.02;;;;;;;;;;5007459;28;20074;-58
2023/05/01 03:24:07;;;;;;;16.45;8.93;;;;;;;;;;5006353;28;20045;-58
2023/05/01 03:26:33;;;;;;;11.32;5.38;;;;;;;;;;5006348;28;20050;-58
2023/05/01 03:28:59;;;;;;;16.65;8.65;;;;;;;;;;5008800;28;21002;-58
2023/05/01 03:31:25;;;;;;;13.80;9.05;;;;;;;;;;5007363;28;20043;-58
2023/05/01 03:33:51;;;;;;;15.15;9.00;;;;;;;;;;5009144;28;20444;-58
2023/05/01 03:36:17;;;;;;;14.57;7.90;;;;;;;;;;5038618;28;20358;-58
2023/05/01 03:38:44;;;;;;;13.93;8.00;;;;;;;;;;5010551;28;20516;-59
2023/05/01 03:41:10;;;;;;;19.30;10.50;;;;;;;;;;5037999;28;20108;-58
2023/05/01 03:43:36;;;;;;;14.43;8.57;;;;;;;;;;5007582;28;20054;-58
2023/05/01 03:46:03;;;;;;;15.13;8.77;;;;;;;;;;5008791;28;20049;-58
2023/05/01 03:48:29;;;;;;;13.57;7.90;;;;;;;;;;5011119;28;20539;-58
2023/05/01 03:50:55;;;;;;;15.90;8.70;;;;;;;;;;5009120;28;20269;-58
2023/05/01 03:53:21;;;;;;;14.07;8.20;;;;;;;;;;5010150;28;20052;-59
2023/05/01 03:55:47;;;;;;;14.38;7.53;;;;;;;;;;5010672;28;20353;-59
2023/05/01 03:58:13;;;;;;;15.18;8.23;;;;;;;;;;5010353;28;20046;-58
2023/05/01 04:00:40;;;;;;;13.35;8.32;;;;;;;;;;5010897;28;20567;-58
2023/05/01 04:03:06;;;;;;;14.80;8.43;;;;;;;;;;5012579;28;20077;-58
2023/05/01 04:05:33;;;;;;;15.10;9.02;;;;;;;;;;5011586;28;20050;-58
2023/05/01 04:07:59;;;;;;;15.63;8.68;;;;;;;;;;5014544;28;20073;-58
2023/05/01 04:10:25;;;;;;;13.48;8.45;;;;;;;;;;5013368;28;20045;-58
2023/05/01 04:12:51;;;;;;;14.18;8.77;;;;;;;;;;5014895;28;20054;-58
2023/05/01 04:15:17;;;;;;;13.90;7.70;;;;;;;;;;5011169;28;20608;-58
2023/05/01 04:17:43;;;;;;;13.85;8.40;;;;;;;;;;5010722;28;20524;-59
2023/05/01 04:20:10;;;;;;;15.15;8.32;;;;;;;;;;5005958;28;20500;-58
2023/05/01 04:22:36;;;;;;;17.55;10.05;;;;;;;;;;5011682;28;20044;-58
2023/05/01 04:25:03;;;;;;;16.27;9.75;;;;;;;;;;5012389;28;20045;-58
2023/05/01 04:27:29;;;;;;;15.80;8.25;;;;;;;;;;5012378;28;20042;-58
2023/05/01 04:29:56;;;;;;;19.13;9.95;;;;;;;;;;5028606;28;20116;-58
2023/05/01 04:32:22;;;;;;;17.83;8.77;;;;;;;;;;5014233;28;20046;-59
2023/05/01 04:34:48;;;;;;;16.05;9.20;;;;;;;;;;5012638;28;20050;-58
2023/05/01 04:37:16;;;;;;;14.50;7.60;;;;;;;;;;5010934;28;20057;-58
2023/05/01 04:39:43;;;;;;;15.40;8.48;;;;;;;;;;5013897;28;20044;-59
2023/05/01 04:42:09;;;;;;;16.60;9.80;;;;;;;;;;5008394;28;20042;-58
2023/05/01 04:44:36;;;;;;;15.80;9.30;;;;;;;;;;5012462;28;20057;-62
2023/05/01 04:47:02;;;;;;;14.75;9.48;;;;;;;;;;5007167;28;20112;-59
2023/05/01 04:49:28;;;;;;;15.77;8.98;;;;;;;;;;5011964;28;20065;-58
2023/05/01 04:51:55;;;;;;;21.10;10.02;;;;;;;;;;5010975;28;20042;-58
2023/05/01 04:54:22;;;;;;;15.88;8.38;;;;;;;;;;5014417;28;20050;-58
2023/05/01 04:56:48;;;;;;;15.35;8.75;;;;;;;;;;5010190;28;20172;-58
2023/05/01 04:59:14;;;;;;;15.80;8.43;;;;;;;;;;5013251;28;20524;-58
2023/05/01 05:01:40;;;;;;;15.88;9.05;;;;;;;;;;5011277;28;20049;-58
2023/05/01 05:04:06;;;;;;;14.95;8.68;;;;;;;;;;5012576;28;20038;-58
2023/05/01 05:06:32;;;;;;;16.58;9.40;;;;;;;;;;5009149;28;20048;-61
2023/05/01 05:08:59;;;;;;;13.20;8.38;;;;;;;;;;5012964;28;20046;-61
2023/05/01 05:11:25;;;;;;;13.98;8.40;;;;;;;;;;5012550;28;20053;-61
2023/05/01 05:13:51;;;;;;;15.02;8.65;;;;;;;;;;5028116;28;20594;-61
2023/05/01 05:16:17;;;;;;;15.15;7.72;;;;;;;;;;5010682;28;20889;-61
2023/05/01 05:18:43;;;;;;;13.20;7.50;;;;;;;;;;5009927;28;20061;-61
2023/05/01 05:21:10;;;;;;;16.00;7.38;;;;;;;;;;5009575;28;20048;-61
2023/05/01 05:23:36;;;;;;;17.65;7.35;;;;;;;;;;5010196;28;20046;-61
2023/05/01 05:26:02;;;;;;;15.48;6.82;;;;;;;;;;5010015;28;20137;-60
2023/05/01 05:28:29;;;;;;;13.13;8.18;;;;;;;;;;5006695;28;20062;-61
2023/05/01 05:30:55;;;;;;;13.70;7.47;;;;;;;;;;5018550;28;20432;-61
2023/05/01 05:33:23;;;;;;;14.98;7.53;;;;;;;;;;5007214;28;20134;-61
2023/05/01 05:35:51;;;;;;;19.73;9.90;;;;;;;;;;5012811;28;20512;-61
2023/05/01 05:38:17;;;;;;;12.93;7.68;;;;;;;;;;5012001;28;20045;-61
2023/05/01 05:40:43;;;;;;;14.30;8.50;;;;;;;;;;5009824;28;20056;-61
2023/05/01 05:43:09;;;;;;;15.32;9.52;;;;;;;;;;5009028;28;20200;-61
2023/05/01 05:45:35;;;;;;;14.82;7.85;;;;;;;;;;5010666;28;20043;-61
2023/05/01 05:48:02;;;;;;;13.85;6.45;;;;;;;;;;5010788;28;20076;-60
2023/05/01 05:50:28;;;;;;;16.05;8.80;;;;;;;;;;5010574;28;20579;-61
2023/05/01 05:52:55;;;;;;;16.00;8.52;;;;;;;;;;5009661;28;20041;-61
2023/05/01 05:55:21;;;;;;;14.18;8.48;;;;;;;;;;5004784;28;20038;-61
2023/05/01 05:57:47;;;;;;;18.52;9.57;;;;;;;;;;5013293;28;20046;-61
2023/05/01 06:00:14;;;;;;;20.90;9.43;;;;;;;;;;5012210;28;20076;-61
2023/05/01 06:02:40;;;;;;;16.17;7.43;;;;;;;;;;5011565;28;20054;-61
2023/05/01 06:05:06;;;;;;;12.70;6.80;;;;;;;;;;5012748;28;20104;-61
2023/05/01 06:07:33;;;;;;;18.50;9.27;;;;;;;;;;5012100;28;20605;-61
2023/05/01 06:10:03;;;;;;;15.85;8.48;;;;;;;;;;5012957;28;20038;-61
2023/05/01 06:12:29;;;;;;;18.70;7.25;;;;;;;;;;5010842;28;20121;-61
2023/05/01 06:14:55;;;;;;;15.82;8.63;;;;;;;;;;5008333;28;20041;-61
2023/05/01 06:17:21;;;;;;;13.85;7.28;;;;;;;;;;5024805;28;20076;-61
2023/05/01 06:19:47;;;;;;;18.23;9.57;;;;;;;;;;5010788;28;20168;-61
2023/05/01 06:22:14;;;;;;;14.93;8.15;;;;;;;;;;5010840;28;20312;-61
2023/05/01 06:24:40;;;;;;;18.40;9.32;;;;;;;;;;5010890;28;20037;-61
2023/05/01 06:27:06;;;;;;;15.52;8.80;;;;;;;;;;5009553;28;20050;-62
2023/05/01 06:29:32;;;;;;;15.35;8.98;;;;;;;;;;5008526;28;20073;-61
2023/05/01 06:31:58;;;;;;;16.75;8.38;;;;;;;;;;5009111;28;20046;-61
2023/05/01 06:34:24;;;;;;;16.80;8.88;;;;;;;;;;5010630;28;20126;-60
2023/05/01 06:36:50;;;;;;;15.13;8.88;;;;;;;;;;5009929;28;20140;-61
2023/05/01 06:39:16;;;;;;;13.85;7.32;;;;;;;;;;5010428;28;20052;-61
2023/05/01 06:41:45;;;;;;;16.98;9.40;;;;;;;;;;5009991;28;20048;-61
2023/05/01 06:44:12;;;;;;;14.13;8.38;;;;;;;;;;5024790;28;20125;-61
2023/05/01 06:46:38;;;;;;;19.75;8.65;;;;;;;;;;5009198;28;20489;-61
2023/05/01 06:49:04;;;;;;;15.98;8.60;;;;;;;;;;5010392;28;20124;-61
2023/05/01 06:51:30;;;;;;;19.00;9.93;;;;;;;;;;5007249;28;20050;-61
2023/05/01 06:53:57;;;;;;;14.43;8.13;;;;;;;;;;5004856;28;20038;-60
2023/05/01 06:56:23;;;;;;;17.23;8.25;;;;;;;;;;5008971;28;20601;-61
2023/05/01 06:58:49;;;;;;;15.57;9.05;;;;;;;;;;5005269;28;20534;-60
2023/05/01 07:01:16;;;;;;;12.65;7.55;;;;;;;;;;5008775;28;20044;-60
2023/05/01 07:03:42;;;;;;;17.25;8.68;;;;;;;;;;5005795;28;20633;-60
2023/05/01 07:06:08;;;;;;;21.02;9.13;;;;;;;;;;5007738;28;20579;-61
2023/05/01 07:08:34;;;;;;;17.00;7.40;;;;;;;;;;5008252;28;20109;-61
2023/05/01 07:11:01;;;;;;;14.63;9.05;;;;;;;;;;5007356;28;20591;-61
2023/05/01 07:13:27;;;;;;;15.43;8.73;;;;;;;;;;5010241;28;20509;-61
2023/05/01 07:15:53;;;;;;;16.85;8.35;;;;;;;;;;4996692;28;20544;-61
2023/05/01 07:18:19;;;;;;;18.88;9.07;;;;;;;;;;5000184;28;20042;-61
2023/05/01 07:20:46;;;;;;;16.92;10.55;;;;;;;;;;5003944;28;20046;-61
2023/05/01 07:23:12;;;;;;;18.45;8.05;;;;;;;;;;5003626;28;20115;-61
2023/05/01 07:25:40;;;;;;;15.07;7.70;;;;;;;;;;5038124;28;20050;-61
2023/05/01 07:28:07;;;;;;;16.42;9.00;;;;;;;;;;5005643;28;20066;-61
2023/05/01 07:30:33;;;;;;;17.85;7.20;;;;;;;;;;5002688;28;20138;-62
2023/05/01 07:32:59;;;;;;;14.80;9.20;;;;;;;;;;5040266;28;20512;-61
2023/05/01 07:35:26;;;;;;;16.45;7.53;;;;;;;;;;4998592;28;20047;-61
2023/05/01 07:37:52;;;;;;;14.88;8.82;;;;;;;;;;5033938;28;20168;-61
2023/05/01 07:40:18;;;;;;;11.70;7.55;;;;;;;;;;5007578;28;20054;-61
2023/05/01 07:42:44;;;;;;;14.35;7.75;;;;;;;;;;5011733;28;20515;-61
2023/05/01 07:45:10;;;;;;;11.30;7.07;;;;;;;;;;5010056;28;20065;-61
2023/05/01 07:47:37;;;;;;;14.75;6.75;;;;;;;;;;5009483;28;20113;-61
2023/05/01 07:50:03;;;;;;;11.68;7.18;;;;;;;;;;5007408;28;20108;-62
2023/05/01 07:52:29;;;;;;;12.40;6.47;;;;;;;;;;5014386;28;20149;-61
2023/05/01 07:54:55;;;;;;;10.07;6.35;;;;;;;;;;5014027;28;20401;-61
2023/05/01 07:57:24;;;;;;;9.82;6.00;;;;;;;;;;5013064;28;20038;-61
2023/05/01 07:59:57;;;;;;;10.02;5.05;;;;;;;;;;5010500;28;20619;-61
2023/05/01 08:02:23;;;;;;;9.43;5.55;;;;;;;;;;5013827;28;20511;-61
2023/05/01 08:04:49;;;;;;;10.00;4.57;;;;;;;;;;5030079;28;20038;-61
2023/05/01 08:07:15;;;;;;;6.75;4.05;;;;;;;;;;5011727;28;20038;-60
2023/05/01 08:09:41;;;;;;;6.80;3.78;;;;;;;;;;5010852;28;20072;-61
2023/05/01 08:12:07;;;;;;;7.40;3.45;;;;;;;;;;5012849;28;20038;-61
2023/05/01 08:14:33;;;;;;;5.50;2.70;;;;;;;;;;5012044;28;20049;-61
2023/05/01 08:16:59;;;;;;;5.50;3.35;;;;;;;;;;5013574;28;20045;-61
2023/05/01 08:19:26;;;;;;;9.05;2.70;;;;;;;;;;5005993;28;20049;-61
2023/05/01 08:21:52;;;;;;;6.10;2.63;;;;;;;;;;5015132;28;20862;-61
2023/05/01 08:24:19;;;;;;;7.47;2.78;;;;;;;;;;5013666;28;20095;-61
2023/05/01 08:26:45;;;;;;;4.65;2.60;;;;;;;;;;5013822;28;20578;-61
2023/05/01 08:29:11;;;;;;;4.10;1.63;;;;;;;;;;5012878;28;20056;-60
2023/05/01 08:31:38;;;;;;;3.30;1.50;;;;;;;;;;5013154;28;20192;-60
2023/05/01 08:34:06;;;;;;;3.20;1.75;;;;;;;;;;5010050;28;20512;-61
2023/05/01 08:36:33;;;;;;;7.32;1.90;;;;;;;;;;5012415;28;20127;-61
2023/05/01 08:38:59;;;;;;;7.20;2.17;;;;;;;;;;5008552;28;20046;-60
2023/05/01 08:41:27;;;;;;;3.85;2.08;;;;;;;;;;5011284;28;20043;-61
2023/05/01 08:43:55;;;;;;;3.50;1.73;;;;;;;;;;5005377;28;20452;-60
2023/05/01 08:46:28;;;;;;;4.25;2.47;;;;;;;;;;5000799;28;20492;-60
2023/05/01 08:48:58;;;;;;;3.42;1.83;;;;;;;;;;5005825;28;20407;-61
2023/05/01 08:51:25;;;;;;;4.43;2.28;;;;;;;;;;5006935;28;20049;-61
2023/05/01 08:53:52;;;;;;;3.80;1.88;;;;;;;;;;5010097;28;21254;-60
2023/05/01 08:56:20;;;;;;;3.03;1.88;;;;;;;;;;5010449;28;20100;-61
2023/05/01 08:58:49;;;;;;;2.50;1.60;;;;;;;;;;5014145;28;20042;-60
2023/05/01 09:01:15;;;;;;;7.05;3.08;;;;;;;;;;5011345;28;20042;-61
2023/05/01 09:03:43;;;;;;;1.75;1.15;;;;;;;;;;5014166;28;20128;-61
2023/05/01 09:06:09;;;;;;;2.30;1.30;;;;;;;;;;5013775;28;20057;-60
2023/05/01 09:08:36;;;;;;;4.40;2.47;;;;;;;;;;5013688;28;20054;-61
2023/05/01 09:11:03;;;;;;;1.42;0.90;;;;;;;;;;5011354;28;20065;-60
2023/05/01 09:13:30;;;;;;;1.42;0.90;;;;;;;;;;5009327;28;20351;-60
2023/05/01 09:15:56;;;;;;;1.65;0.98;;;;;;;;;;5009063;28;20514;-60
2023/05/01 09:18:23;;;;;;;1.63;1.08;;;;;;;;;;5012617;28;20100;-61
2023/05/01 09:20:49;;;;;;;2.83;1.23;;;;;;;;;;5009608;28;21952;-60
2023/05/01 09:23:15;;;;;;;4.47;1.33;;;;;;;;;;5005778;28;20045;-60
2023/05/01 09:25:41;;;;;;;2.22;1.25;;;;;;;;;;5002555;28;20177;-60
2023/05/01 09:28:07;;;;;;;1.98;1.58;;;;;;;;;;5008672;28;20045;-60
2023/05/01 09:30:35;;;;;;;4.18;1.70;;;;;;;;;;5005469;28;20104;-60
2023/05/01 09:33:04;;;;;;;2.85;1.70;;;;;;;;;;5009008;28;20607;-60
2023/05/01 09:35:32;;;;;;;2.47;1.65;;;;;;;;;;5008538;28;20045;-61
2023/05/01 09:37:58;;;;;;;2.42;1.00;;;;;;;;;;5011226;28;20037;-61
2023/05/01 09:40:27;;;;;;;3.17;1.15;;;;;;;;;;5010723;28;20052;-61
2023/05/01 09:42:55;;;;;;;1.55;0.98;;;;;;;;;;5011369;28;20096;-60
2023/05/01 09:45:22;;;;;;;3.40;1.85;;;;;;;;;;5004858;28;20219;-60
2023/05/01 09:47:48;;;;;;;1.75;0.80;;;;;;;;;;5001553;28;20084;-61
2023/05/01 09:50:29;;;;;;;3.95;2.28;;;;;;;;;;5008196;28;20066;-61
2023/05/01 09:52:56;;;;;;;2.58;1.10;;;;;;;;;;5012282;28;20045;-61
2023/05/01 09:55:25;;;;;;;3.25;1.38;;;;;;;;;;5024697;28;20158;-61
2023/05/01 09:57:51;;;;;;;1.73;1.50;;;;;;;;;;5007617;28;20061;-61
2023/05/01 10:00:20;;;;;;;1.15;0.80;;;;;;;;;;5007769;28;20046;-61
2023/05/01 10:02:47;;;;;;;1.55;1.20;;;;;;;;;;5003848;28;20045;-60
2023/05/01 10:05:13;;;;;;;4.72;0.98;;;;;;;;;;5002755;28;20037;-61
2023/05/01 10:07:39;;;;;;;2.22;1.65;;;;;;;;;;5009035;28;20056;-60
2023/05/01 10:10:15;;;;;;;1.48;1.08;;;;;;;;;;5002723;28;20042;-60
2023/05/01 10:12:41;;;;;;;2.17;0.93;;;;;;;;;;5006134;28;20038;-60
2023/05/01 10:15:09;;;;;;;0.88;0.80;;;;;;;;;;5001575;28;20049;-60
2023/05/01 10:17:35;;;;;;;3.83;1.50;;;;;;;;;;5006662;28;20050;-61
2023/05/01 10:20:01;;;;;;;4.05;1.75;;;;;;;;;;5003397;28;20073;-61
2023/05/01 10:22:27;;;;;;;2.40;1.10;;;;;;;;;;5007474;28;20081;-61
2023/05/01 10:24:53;;;;;;;1.65;0.90;;;;;;;;;;5005369;28;20050;-61
2023/05/01 10:27:21;;;;;;;2.15;1.15;;;;;;;;;;5000612;28;20561;-61
2023/05/01 10:29:48;;;;;;;3.40;1.65;;;;;;;;;;5007384;28;20152;-62
2023/05/01 10:32:14;;;;;;;1.55;0.90;;;;;;;;;;5005780;28;20874;-61
2023/05/01 10:34:47;;;;;;;1.92;1.05;;;;;;;;;;5005281;28;20045;-60
2023/05/01 10:37:14;;;;;;;4.55;0.98;;;;;;;;;;5004896;28;20061;-62
2023/05/01 10:39:40;;;;;;;3.40;1.20;;;;;;;;;;5004549;28;20038;-62
2023/05/01 10:42:13;;;;;;;2.42;1.10;;;;;;;;;;5004086;28;20159;-62
2023/05/01 10:44:39;;;;;;;2.75;1.52;;;;;;;;;;5004549;28;20136;-62
2023/05/01 10:47:41;;;;;;;0.52;0.52;;;;;;;;;;5003762;28;20104;-62
2023/05/01 10:50:14;;;;;;;1.95;0.90;;;;;;;;;;5000246;28;20038;-62
2023/05/01 10:52:59;;;;;;;1.60;0.85;;;;;;;;;;5003253;28;20050;-62
2023/05/01 10:55:35;;;;;;;1.65;1.08;;;;;;;;;;5002778;28;20042;-62
2023/05/01 10:58:01;;;;;;;1.50;0.80;;;;;;;;;;5005360;28;20126;-62
2023/05/01 11:00:27;;;;;;;1.95;0.90;;;;;;;;;;5005388;28;20092;-62
2023/05/01 11:03:12;;;;;;;1.63;0.90;;;;;;;;;;5006377;28;20042;-62
2023/05/01 11:05:57;;;;;;;2.72;0.70;;;;;;;;;;5002609;28;20046;-61
2023/05/01 11:08:33;;;;;;;3.15;1.42;;;;;;;;;;5005471;28;20048;-62
2023/05/01 11:11:17;;;;;;;1.30;0.90;;;;;;;;;;5005475;28;20443;-61
2023/05/01 11:13:56;;;;;;;1.20;0.98;;;;;;;;;;5004753;28;20161;-61
2023/05/01 11:16:38;;;;;;;3.92;0.98;;;;;;;;;;5010371;28;20038;-61
2023/05/01 11:19:24;;;;;;;8.02;1.90;;;;;;;;;;5026871;28;20642;-62
2023/05/01 11:21:51;;;;;;;1.63;0.82;;;;;;;;;;5012914;28;20042;-61
2023/05/01 11:24:17;;;;;;;5.18;1.60;;;;;;;;;;5006437;28;20104;-62
2023/05/01 11:26:44;;;;;;;3.22;1.95;;;;;;;;;;5009252;28;20050;-61
2023/05/01 11:29:10;;;;;;;2.97;1.40;;;;;;;;;;5013087;28;20461;-63
2023/05/01 11:31:37;;;;;;;1.45;0.90;;;;;;;;;;5006636;28;20180;-62
2023/05/01 11:34:05;;;;;;;4.38;1.60;;;;;;;;;;5009119;28;20042;-62
2023/05/01 11:36:47;;;;;;;4.38;2.80;;;;;;;;;;5011150;28;20615;-62
2023/05/01 11:39:17;;;;;;;3.85;1.98;;;;;;;;;;5012029;28;20596;-61
2023/05/01 11:41:43;;;;;;;3.63;1.45;;;;;;;;;;5011655;28;20096;-62
2023/05/01 11:44:12;;;;;;;4.40;1.52;;;;;;;;;;5007208;28;20832;-61
2023/05/01 11:46:38;;;;;;;4.72;1.85;;;;;;;;;;5013737;28;20042;-61
2023/05/01 11:49:04;;;;;;;3.00;1.50;;;;;;;;;;5014125;28;20117;-60
2023/05/01 11:51:31;;;;;;;4.20;1.70;;;;;;;;;;5030756;28;20038;-60
2023/05/01 11:54:01;;;;;;;3.60;1.55;;;;;;;;;;5015189;28;20033;-61
2023/05/01 11:56:27;;;;;;;8.60;2.70;;;;;;;;;;5012594;28;20054;-61
2023/05/01 11:58:54;;;;;;;2.55;1.58;;;;;;;;;;5015988;28;20042;-61
2023/05/01 12:01:21;;;;;;;2.20;1.50;;;;;;;;;;5015550;28;20523;-61
2023/05/01 12:03:47;;;;;;;2.30;1.40;;;;;;;;;;5015697;28;20104;-62
2023/05/01 12:06:13;;;;;;;4.78;1.65;;;;;;;;;;5014105;28;20045;-61
2023/05/01 12:08:44;;;;;;;4.07;0.98;;;;;;;;;;5016342;28;20050;-62
2023/05/01 12:11:10;;;;;;;2.20;1.30;;;;;;;;;;5012355;28;20508;-61
2023/05/01 12:13:36;;;;;;;3.22;1.33;;;;;;;;;;5014197;28;20062;-61
2023/05/01 12:16:03;;;;;;;5.53;2.10;;;;;;;;;;5012562;28;20044;-61
2023/05/01 12:18:29;;;;;;;3.13;1.40;;;;;;;;;;5012883;28;20061;-61
2023/05/01 12:20:55;;;;;;;1.45;1.25;;;;;;;;;;5014281;28;20042;-60
2023/05/01 12:23:36;;;;;;;2.75;1.20;;;;;;;;;;5012933;28;20623;-61
2023/05/01 12:26:02;;;;;;;2.45;1.10;;;;;;;;;;5012902;28;20089;-60
2023/05/01 12:28:28;;;;;;;3.22;1.30;;;;;;;;;;5012425;28;20042;-61
2023/05/01 12:31:00;;;;;;;4.13;1.67;;;;;;;;;;5010898;28;20181;-61
2023/05/01 12:33:27;;;;;;;2.80;1.33;;;;;;;;;;5013180;28;20161;-61
2023/05/01 12:35:53;;;;;;;3.80;1.85;;;;;;;;;;5012420;28;20042;-60
2023/05/01 12:38:20;;;;;;;3.75;1.70;;;;;;;;;;5010324;28;22314;-60
2023/05/01 12:40:56;;;;;;;3.42;1.35;;;;;;;;;;5012274;28;20050;-61
2023/05/01 12:43:29;;;;;;;3.10;1.80;;;;;;;;;;5012532;28;20058;-60
2023/05/01 12:45:55;;;;;;;3.45;2.13;;;;;;;;;;5014086;28;20046;-61
2023/05/01 12:48:22;;;;;;;3.67;1.60;;;;;;;;;;5009610;28;20065;-60
2023/05/01 12:50:54;;;;;;;3.42;2.10;;;;;;;;;;5010009;28;20049;-61
2023/05/01 12:53:21;;;;;;;2.10;1.60;;;;;;;;;;5012576;28;20094;-60
2023/05/01 12:55:48;;;;;;;2.60;1.27;;;;;;;;;;5011747;28;20634;-59
2023/05/01 12:58:15;;;;;;;3.80;1.88;;;;;;;;;;5009833;28;20042;-59
2023/05/01 13:00:42;;;;;;;3.05;1.27;;;;;;;;;;5011682;28;20138;-59
2023/05/01 13:03:08;;;;;;;4.05;1.92;;;;;;;;;;5009968;28;20121;-59
2023/05/01 13:05:34;;;;;;;3.10;1.33;;;;;;;;;;5013276;28;20038;-60
2023/05/01 13:08:01;;;;;;;3.88;1.52;;;;;;;;;;5009042;28;20049;-60
2023/05/01 13:10:30;;;;;;;5.70;1.27;;;;;;;;;;5011830;28;20045;-60
2023/05/01 13:12:57;;;;;;;2.97;1.55;;;;;;;;;;5013176;28;20049;-60
2023/05/01 13:15:23;;;;;;;4.28;1.77;;;;;;;;;;5013014;28;20136;-60
2023/05/01 13:17:49;;;;;;;4.10;1.80;;;;;;;;;;5012972;28;20049;-60
2023/05/01 13:20:24;;;;;;;4.15;1.55;;;;;;;;;;5013277;28;20465;-59
2023/05/01 13:22:50;;;;;;;3.92;1.50;;;;;;;;;;5015259;28;20141;-61
2023/05/01 13:25:19;;;;;;;4.88;1.67;;;;;;;;;;5007367;28;20662;-61
2023/05/01 13:27:49;;;;;;;3.88;1.70;;;;;;;;;;5013047;28;20046;-61
2023/05/01 13:30:15;;;;;;;3.13;1.40;;;;;;;;;;5006655;28;20046;-61
2023/05/01 13:32:41;;;;;;;3.50;1.60;;;;;;;;;;5009534;28;20427;-60
2023/05/01 13:35:08;;;;;;;3.80;1.40;;;;;;;;;;5013724;28;20042;-61
2023/05/01 13:37:39;;;;;;;2.85;1.45;;;;;;;;;;5011137;28;20046;-61
2023/05/01 13:40:05;;;;;;;4.75;1.70;;;;;;;;;;5012273;28;20081;-60
2023/05/01 13:42:32;;;;;;;4.55;2.03;;;;;;;;;;5004748;28;20067;-61
2023/05/01 13:44:58;;;;;;;3.53;1.50;;;;;;;;;;5009136;28;20144;-61
2023/05/01 13:47:25;;;;;;;4.82;1.80;;;;;;;;;;5010600;28;20042;-61
2023/05/01 13:49:51;;;;;;;1.83;1.08;;;;;;;;;;5038025;28;20060;-61
2023/05/01 13:52:18;;;;;;;1.85;1.05;;;;;;;;;;5010003;28;20062;-61
2023/05/01 13:54:44;;;;;;;4.63;1.65;;;;;;;;;;5008001;28;20053;-60
2023/05/01 13:57:11;;;;;;;3.58;1.38;;;;;;;;;;5010765;28;20046;-61
2023/05/01 13:59:41;;;;;;;7.63;1.63;;;;;;;;;;5008549;28;20148;-61
2023/05/01 14:02:21;;;;;;;3.60;1.27;;;;;;;;;;5008049;28;20157;-61
2023/05/01 14:04:47;;;;;;;5.93;1.92;;;;;;;;;;5006955;28;20172;-61
2023/05/01 14:07:20;;;;;;;3.47;2.10;;;;;;;;;;5003373;28;20057;-61
2023/05/01 14:09:54;;;;;;;3.58;1.60;;;;;;;;;;5005780;28;20030;-60
2023/05/01 14:12:25;;;;;;;4.93;1.67;;;;;;;;;;5006962;28;20080;-60
2023/05/01 14:14:52;;;;;;;3.42;2.15;;;;;;;;;;5012016;28;20037;-61
2023/05/01 14:17:18;;;;;;;4.63;1.45;;;;;;;;;;5009532;28;20058;-61
2023/05/01 14:19:45;;;;;;;3.03;1.58;;;;;;;;;;5011121;28;20930;-60
2023/05/01 14:22:11;;;;;;;4.78;1.70;;;;;;;;;;5010660;28;20053;-61
2023/05/01 14:24:39;;;;;;;4.70;1.50;;;;;;;;;;5008720;28;20039;-60
2023/05/01 14:27:08;;;;;;;3.65;1.40;;;;;;;;;;5009423;28;20045;-61
2023/05/01 14:29:35;;;;;;;5.18;2.28;;;;;;;;;;5010424;28;20080;-61
2023/05/01 14:32:02;;;;;;;2.97;1.40;;;;;;;;;;5023224;28;20525;-61
2023/05/01 14:34:29;;;;;;;3.17;1.40;;;;;;;;;;5006121;28;20440;-60
2023/05/01 14:36:55;;;;;;;2.53;1.13;;;;;;;;;;5005670;28;20057;-61
2023/05/01 14:39:21;;;;;;;3.17;1.13;;;;;;;;;;5004784;28;20090;-60